sensor_id;sensor_type;location;lat;lon;timestamp;temperature;humidity
16625;DHT22;8426;48.496;9.098;2024-03-29T00:04:10;5.40;99.90
16625;DHT22;8426;48.496;9.098;2024-03-29T00:09:11;6.00;99.90
16625;DHT22;8426;48.496;9.098;2024-03-29T00:14:14;6.10;99.90
16625;DHT22;8426;48.496;9.098;2024-03-29T00:19:19;5.90;99.90
16625;DHT22;8426;48.496;9.098;2024-03-29T00:24:21;5.70;99.90
16625;DHT22;8426;48.496;9.098;2024-03-29T00:29:23;5.80;99.90
16625;DHT22;8426;48.496;9.098;2024-03-29T00:34:25;5.80;99.90
16625;DHT22;8426;48.496;9.098;2024-03-29T00:39:27;5.60;99.90
16625;DHT22;8426;48.496;9.098;2024-03-29T00:44:32;5.60;99.90
16625;DHT22;8426;48.496;9.098;2024-03-29T00:49:34;6.40;99.90
16625;DHT22;8426;48.496;9.098;2024-03-29T00:54:35;6.50;99.90
16625;DHT22;8426;48.496;9.098;2024-03-29T00:59:39;6.30;99.90
16625;DHT22;8426;48.496;9.098;2024-03-29T01:04:41;6.40;99.90
16625;DHT22;8426;48.496;9.098;2024-03-29T01:09:42;6.30;99.90
16625;DHT22;8426;48.496;9.098;2024-03-29T01:14:46;5.90;99.90
16625;DHT22;8426;48.496;9.098;2024-03-29T01:19:47;5.40;99.90
16625;DHT22;8426;48.496;9.098;2024-03-29T01:24:49;5.10;99.90
16625;DHT22;8426;48.496;9.098;2024-03-29T01:29:52;4.90;99.90
16625;DHT22;8426;48.496;9.098;2024-03-29T01:34:53;4.80;99.90
16625;DHT22;8426;48.496;9.098;2024-03-29T01:39:55;5.10;99.90
16625;DHT22;8426;48.496;9.098;2024-03-29T01:44:58;5.50;99.90
16625;DHT22;8426;48.496;9.098;2024-03-29T01:50:01;5.50;99.90
16625;DHT22;8426;48.496;9.098;2024-03-29T01:55:04;5.50;99.90
16625;DHT22;8426;48.496;9.098;2024-03-29T02:00:09;5.60;99.90
16625;DHT22;8426;48.496;9.098;2024-03-29T02:05:12;5.50;99.90
16625;DHT22;8426;48.496;9.098;2024-03-29T02:10:16;5.70;99.90
16625;DHT22;8426;48.496;9.098;2024-03-29T02:15:22;5.70;99.90
16625;DHT22;8426;48.496;9.098;2024-03-29T02:20:25;5.60;99.90
16625;DHT22;8426;48.496;9.098;2024-03-29T02:25:30;5.10;99.90
16625;DHT22;8426;48.496;9.098;2024-03-29T02:30:33;4.60;99.90
16625;DHT22;8426;48.496;9.098;2024-03-29T02:35:36;4.40;99.90
16625;DHT22;8426;48.496;9.098;2024-03-29T02:40:40;4.40;99.90
16625;DHT22;8426;48.496;9.098;2024-03-29T02:45:43;4.30;99.90
16625;DHT22;8426;48.496;9.098;2024-03-29T02:50:46;4.00;99.90
16625;DHT22;8426;48.496;9.098;2024-03-29T02:55:50;3.90;99.90
16625;DHT22;8426;48.496;9.098;2024-03-29T03:00:52;3.80;99.90
16625;DHT22;8426;48.496;9.098;2024-03-29T03:05:55;3.60;99.90
16625;DHT22;8426;48.496;9.098;2024-03-29T03:10:59;3.40;99.90
16625;DHT22;8426;48.496;9.098;2024-03-29T03:16:02;3.30;99.90
16625;DHT22;8426;48.496;9.098;2024-03-29T03:21:05;3.30;99.90
16625;DHT22;8426;48.496;9.098;2024-03-29T03:26:09;3.30;99.90
16625;DHT22;8426;48.496;9.098;2024-03-29T03:31:13;3.20;99.90
16625;DHT22;8426;48.496;9.098;2024-03-29T03:36:16;3.10;99.90
16625;DHT22;8426;48.496;9.098;2024-03-29T03:41:20;3.20;99.90
16625;DHT22;8426;48.496;9.098;2024-03-29T03:46:22;3.20;99.90
16625;DHT22;8426;48.496;9.098;2024-03-29T03:57:49;3.10;99.90
16625;DHT22;8426;48.496;9.098;2024-03-29T04:02:52;3.20;99.90
16625;DHT22;8426;48.496;9.098;2024-03-29T04:07:55;3.30;99.90
16625;DHT22;8426;48.496;9.098;2024-03-29T04:13:01;3.30;99.90
16625;DHT22;8426;48.496;9.098;2024-03-29T04:18:04;3.50;99.90
16625;DHT22;8426;48.496;9.098;2024-03-29T04:23:06;3.50;99.90
16625;DHT22;8426;48.496;9.098;2024-03-29T04:28:10;3.50;99.90
16625;DHT22;8426;48.496;9.098;2024-03-29T04:33:13;4.10;99.90
16625;DHT22;8426;48.496;9.098;2024-03-29T04:38:15;4.70;99.90
16625;DHT22;8426;48.496;9.098;2024-03-29T04:43:22;5.00;99.90
16625;DHT22;8426;48.496;9.098;2024-03-29T04:48:24;4.90;99.90
16625;DHT22;8426;48.496;9.098;2024-03-29T04:53:27;4.50;99.90
16625;DHT22;8426;48.496;9.098;2024-03-29T04:58:31;4.30;99.90
16625;DHT22;8426;48.496;9.098;2024-03-29T05:03:34;4.00;99.90
16625;DHT22;8426;48.496;9.098;2024-03-29T05:08:37;3.90;99.90
16625;DHT22;8426;48.496;9.098;2024-03-29T05:13:41;3.80;99.90
16625;DHT22;8426;48.496;9.098;2024-03-29T05:18:45;3.90;99.90
16625;DHT22;8426;48.496;9.098;2024-03-29T05:23:47;4.10;99.90
16625;DHT22;8426;48.496;9.098;2024-03-29T05:28:51;4.30;99.90
16625;DHT22;8426;48.496;9.098;2024-03-29T05:33:55;4.40;99.90
16625;DHT22;8426;48.496;9.098;2024-03-29T05:38:58;4.50;99.90
16625;DHT22;8426;48.496;9.098;2024-03-29T05:44:03;4.50;99.90
16625;DHT22;8426;48.496;9.098;2024-03-29T05:49:07;4.50;99.90
16625;DHT22;8426;48.496;9.098;2024-03-29T05:54:09;4.70;99.90
16625;DHT22;8426;48.496;9.098;2024-03-29T05:59:15;4.90;99.90
16625;DHT22;8426;48.496;9.098;2024-03-29T06:04:21;5.10;99.90
16625;DHT22;8426;48.496;9.098;2024-03-29T06:09:30;5.40;99.90
16625;DHT22;8426;48.496;9.098;2024-03-29T06:14:36;6.00;99.90
16625;DHT22;8426;48.496;9.098;2024-03-29T06:19:57;6.70;99.90
16625;DHT22;8426;48.496;9.098;2024-03-29T06:25:01;6.70;99.90
16625;DHT22;8426;48.496;9.098;2024-03-29T06:30:08;6.50;99.90
16625;DHT22;8426;48.496;9.098;2024-03-29T06:35:11;6.30;99.90
16625;DHT22;8426;48.496;9.098;2024-03-29T06:40:14;6.50;99.90
16625;DHT22;8426;48.496;9.098;2024-03-29T06:45:18;6.60;99.90
16625;DHT22;8426;48.496;9.098;2024-03-29T06:50:21;6.50;99.90
16625;DHT22;8426;48.496;9.098;2024-03-29T06:55:24;6.30;99.90
16625;DHT22;8426;48.496;9.098;2024-03-29T07:00:30;6.10;99.90
16625;DHT22;8426;48.496;9.098;2024-03-29T07:05:33;6.00;99.90
16625;DHT22;8426;48.496;9.098;2024-03-29T07:10:36;6.00;99.90
16625;DHT22;8426;48.496;9.098;2024-03-29T07:15:50;6.10;99.90
16625;DHT22;8426;48.496;9.098;2024-03-29T07:20:53;6.20;99.90
16625;DHT22;8426;48.496;9.098;2024-03-29T07:25:58;6.20;99.90
16625;DHT22;8426;48.496;9.098;2024-03-29T07:31:07;6.30;99.90
16625;DHT22;8426;48.496;9.098;2024-03-29T07:36:10;6.30;99.90
16625;DHT22;8426;48.496;9.098;2024-03-29T07:41:14;6.30;99.90
16625;DHT22;8426;48.496;9.098;2024-03-29T07:46:18;6.40;99.90
16625;DHT22;8426;48.496;9.098;2024-03-29T07:51:23;6.80;99.90
16625;DHT22;8426;48.496;9.098;2024-03-29T07:56:26;7.00;99.90
16625;DHT22;8426;48.496;9.098;2024-03-29T08:01:30;7.10;99.90
16625;DHT22;8426;48.496;9.098;2024-03-29T08:06:35;7.00;99.90
16625;DHT22;8426;48.496;9.098;2024-03-29T08:11:38;7.20;99.90
16625;DHT22;8426;48.496;9.098;2024-03-29T08:16:44;7.30;99.90
16625;DHT22;8426;48.496;9.098;2024-03-29T08:21:46;7.30;99.90
16625;DHT22;8426;48.496;9.098;2024-03-29T08:26:49;7.40;99.90
16625;DHT22;8426;48.496;9.098;2024-03-29T08:31:53;7.50;99.90
16625;DHT22;8426;48.496;9.098;2024-03-29T08:36:57;7.80;99.90
16625;DHT22;8426;48.496;9.098;2024-03-29T08:42:00;8.30;99.90
16625;DHT22;8426;48.496;9.098;2024-03-29T08:47:07;9.00;99.90
16625;DHT22;8426;48.496;9.098;2024-03-29T08:52:40;9.40;99.90
16625;DHT22;8426;48.496;9.098;2024-03-29T08:57:43;9.60;99.90
16625;DHT22;8426;48.496;9.098;2024-03-29T09:02:46;9.70;99.90
16625;DHT22;8426;48.496;9.098;2024-03-29T09:07:55;9.40;99.90
16625;DHT22;8426;48.496;9.098;2024-03-29T09:12:57;9.40;99.90
16625;DHT22;8426;48.496;9.098;2024-03-29T09:18:01;9.30;99.90
16625;DHT22;8426;48.496;9.098;2024-03-29T09:23:06;9.60;99.90
16625;DHT22;8426;48.496;9.098;2024-03-29T09:28:09;9.60;99.90
16625;DHT22;8426;48.496;9.098;2024-03-29T09:33:11;9.60;99.90
16625;DHT22;8426;48.496;9.098;2024-03-29T09:38:16;9.30;99.90
16625;DHT22;8426;48.496;9.098;2024-03-29T09:43:20;9.20;99.90
16625;DHT22;8426;48.496;9.098;2024-03-29T09:48:24;10.10;99.90
16625;DHT22;8426;48.496;9.098;2024-03-29T09:53:29;10.70;99.90
16625;DHT22;8426;48.496;9.098;2024-03-29T09:58:33;11.60;99.90
16625;DHT22;8426;48.496;9.098;2024-03-29T10:03:39;12.30;99.90
16625;DHT22;8426;48.496;9.098;2024-03-29T10:08:43;12.80;99.90
16625;DHT22;8426;48.496;9.098;2024-03-29T10:13:45;12.80;99.90
16625;DHT22;8426;48.496;9.098;2024-03-29T10:18:48;13.20;99.90
16625;DHT22;8426;48.496;9.098;2024-03-29T10:23:52;13.70;99.90
16625;DHT22;8426;48.496;9.098;2024-03-29T10:28:55;15.00;99.90
16625;DHT22;8426;48.496;9.098;2024-03-29T10:34:02;16.00;99.90
16625;DHT22;8426;48.496;9.098;2024-03-29T10:39:11;15.80;99.90
16625;DHT22;8426;48.496;9.098;2024-03-29T10:44:14;15.40;99.90
16625;DHT22;8426;48.496;9.098;2024-03-29T10:49:17;15.30;99.90
16625;DHT22;8426;48.496;9.098;2024-03-29T10:54:22;15.20;99.90
16625;DHT22;8426;48.496;9.098;2024-03-29T10:59:37;14.40;99.90
16625;DHT22;8426;48.496;9.098;2024-03-29T11:04:43;14.80;99.90
16625;DHT22;8426;48.496;9.098;2024-03-29T11:09:52;15.20;99.90
16625;DHT22;8426;48.496;9.098;2024-03-29T11:15:02;15.10;99.90
16625;DHT22;8426;48.496;9.098;2024-03-29T11:20:07;15.40;99.90
16625;DHT22;8426;48.496;9.098;2024-03-29T11:25:42;15.30;99.90
16625;DHT22;8426;48.496;9.098;2024-03-29T11:30:47;15.60;99.90
16625;DHT22;8426;48.496;9.098;2024-03-29T11:36:11;15.90;99.90
16625;DHT22;8426;48.496;9.098;2024-03-29T11:41:20;15.70;99.90
16625;DHT22;8426;48.496;9.098;2024-03-29T11:46:29;15.40;99.90
16625;DHT22;8426;48.496;9.098;2024-03-29T11:51:37;15.80;99.90
16625;DHT22;8426;48.496;9.098;2024-03-29T11:56:42;16.50;99.90
16625;DHT22;8426;48.496;9.098;2024-03-29T12:01:44;16.70;99.90
16625;DHT22;8426;48.496;9.098;2024-03-29T12:06:49;16.80;99.90
16625;DHT22;8426;48.496;9.098;2024-03-29T12:11:54;17.20;99.90
16625;DHT22;8426;48.496;9.098;2024-03-29T12:17:09;17.40;99.90
16625;DHT22;8426;48.496;9.098;2024-03-29T12:22:12;17.30;99.90
16625;DHT22;8426;48.496;9.098;2024-03-29T12:27:19;17.30;99.90
16625;DHT22;8426;48.496;9.098;2024-03-29T12:32:29;17.20;99.90
16625;DHT22;8426;48.496;9.098;2024-03-29T12:37:34;16.20;99.90
16625;DHT22;8426;48.496;9.098;2024-03-29T12:42:41;16.10;99.90
16625;DHT22;8426;48.496;9.098;2024-03-29T12:47:44;16.20;99.90
16625;DHT22;8426;48.496;9.098;2024-03-29T12:52:53;16.20;99.90
16625;DHT22;8426;48.496;9.098;2024-03-29T12:58:01;17.00;99.90
16625;DHT22;8426;48.496;9.098;2024-03-29T13:03:06;17.20;99.90
16625;DHT22;8426;48.496;9.098;2024-03-29T13:08:15;16.90;99.90
16625;DHT22;8426;48.496;9.098;2024-03-29T13:13:19;16.50;99.90
16625;DHT22;8426;48.496;9.098;2024-03-29T13:18:22;16.60;99.90
16625;DHT22;8426;48.496;9.098;2024-03-29T13:23:24;16.80;99.90
16625;DHT22;8426;48.496;9.098;2024-03-29T13:28:29;17.00;99.90
16625;DHT22;8426;48.496;9.098;2024-03-29T13:33:34;16.80;99.90
16625;DHT22;8426;48.496;9.098;2024-03-29T13:38:38;16.80;99.90
16625;DHT22;8426;48.496;9.098;2024-03-29T13:43:48;17.10;99.90
16625;DHT22;8426;48.496;9.098;2024-03-29T13:48:57;16.90;99.90
16625;DHT22;8426;48.496;9.098;2024-03-29T13:54:15;17.10;99.90
16625;DHT22;8426;48.496;9.098;2024-03-29T13:59:20;17.10;99.90
16625;DHT22;8426;48.496;9.098;2024-03-29T14:04:22;17.20;99.90
16625;DHT22;8426;48.496;9.098;2024-03-29T14:09:27;17.20;99.90
16625;DHT22;8426;48.496;9.098;2024-03-29T14:14:37;17.10;99.90
16625;DHT22;8426;48.496;9.098;2024-03-29T14:19:40;16.90;99.90
16625;DHT22;8426;48.496;9.098;2024-03-29T14:24:43;17.10;99.90
16625;DHT22;8426;48.496;9.098;2024-03-29T14:29:48;17.10;99.90
16625;DHT22;8426;48.496;9.098;2024-03-29T14:34:51;17.10;99.90
16625;DHT22;8426;48.496;9.098;2024-03-29T14:39:55;16.90;99.90
16625;DHT22;8426;48.496;9.098;2024-03-29T14:45:00;17.20;99.90
16625;DHT22;8426;48.496;9.098;2024-03-29T14:50:04;17.40;99.90
16625;DHT22;8426;48.496;9.098;2024-03-29T14:55:11;17.30;99.90
16625;DHT22;8426;48.496;9.098;2024-03-29T15:00:16;17.10;99.90
16625;DHT22;8426;48.496;9.098;2024-03-29T15:05:24;17.20;99.90
16625;DHT22;8426;48.496;9.098;2024-03-29T15:10:29;17.30;99.90
16625;DHT22;8426;48.496;9.098;2024-03-29T15:15:34;17.40;99.90
16625;DHT22;8426;48.496;9.098;2024-03-29T15:20:39;17.20;99.90
16625;DHT22;8426;48.496;9.098;2024-03-29T15:25:42;17.10;99.90
16625;DHT22;8426;48.496;9.098;2024-03-29T15:30:47;17.30;99.90
16625;DHT22;8426;48.496;9.098;2024-03-29T15:35:59;16.80;99.90
16625;DHT22;8426;48.496;9.098;2024-03-29T15:41:08;16.80;99.90
16625;DHT22;8426;48.496;9.098;2024-03-29T16:11:05;16.10;99.90
16625;DHT22;8426;48.496;9.098;2024-03-29T16:34:18;15.60;99.90
16625;DHT22;8426;48.496;9.098;2024-03-29T17:36:47;13.50;99.90
16625;DHT22;8426;48.496;9.098;2024-03-29T17:41:53;13.30;99.90
16625;DHT22;8426;48.496;9.098;2024-03-29T17:46:58;13.20;99.90
16625;DHT22;8426;48.496;9.098;2024-03-29T17:52:08;13.00;99.90
16625;DHT22;8426;48.496;9.098;2024-03-29T17:57:11;12.90;99.90
16625;DHT22;8426;48.496;9.098;2024-03-29T18:02:20;12.80;99.90
16625;DHT22;8426;48.496;9.098;2024-03-29T18:07:29;12.60;99.90
16625;DHT22;8426;48.496;9.098;2024-03-29T18:12:32;12.30;99.90
16625;DHT22;8426;48.496;9.098;2024-03-29T18:17:40;12.20;99.90
16625;DHT22;8426;48.496;9.098;2024-03-29T18:22:49;12.20;99.90
16625;DHT22;8426;48.496;9.098;2024-03-29T18:28:05;12.30;99.90
16625;DHT22;8426;48.496;9.098;2024-03-29T18:33:35;12.20;99.90
16625;DHT22;8426;48.496;9.098;2024-03-29T18:38:48;12.20;99.90
16625;DHT22;8426;48.496;9.098;2024-03-29T18:43:56;12.10;99.90
16625;DHT22;8426;48.496;9.098;2024-03-29T18:49:14;12.00;99.90
16625;DHT22;8426;48.496;9.098;2024-03-29T18:54:20;11.90;99.90
16625;DHT22;8426;48.496;9.098;2024-03-29T18:59:23;11.90;99.90
16625;DHT22;8426;48.496;9.098;2024-03-29T19:04:28;11.80;99.90
16625;DHT22;8426;48.496;9.098;2024-03-29T19:09:44;11.70;99.90
16625;DHT22;8426;48.496;9.098;2024-03-29T19:47:27;10.60;99.90
16625;DHT22;8426;48.496;9.098;2024-03-29T19:52:36;10.40;99.90
16625;DHT22;8426;48.496;9.098;2024-03-29T19:57:39;10.20;99.90
16625;DHT22;8426;48.496;9.098;2024-03-29T20:02:44;10.20;99.90
16625;DHT22;8426;48.496;9.098;2024-03-29T20:07:47;10.00;99.90
16625;DHT22;8426;48.496;9.098;2024-03-29T20:13:06;9.70;99.90
16625;DHT22;8426;48.496;9.098;2024-03-29T20:18:17;9.60;99.90
16625;DHT22;8426;48.496;9.098;2024-03-29T20:23:23;9.70;99.90
16625;DHT22;8426;48.496;9.098;2024-03-29T20:28:48;9.60;99.90
16625;DHT22;8426;48.496;9.098;2024-03-29T20:33:53;9.60;99.90
16625;DHT22;8426;48.496;9.098;2024-03-29T20:38:58;9.60;99.90
16625;DHT22;8426;48.496;9.098;2024-03-29T20:44:03;9.60;99.90
16625;DHT22;8426;48.496;9.098;2024-03-29T20:49:09;9.70;99.90
16625;DHT22;8426;48.496;9.098;2024-03-29T20:54:22;9.70;99.90
16625;DHT22;8426;48.496;9.098;2024-03-29T20:59:29;9.80;99.90
16625;DHT22;8426;48.496;9.098;2024-03-29T21:04:42;9.70;99.90
16625;DHT22;8426;48.496;9.098;2024-03-29T21:10:05;9.50;99.90
16625;DHT22;8426;48.496;9.098;2024-03-29T21:53:54;8.10;99.90
16625;DHT22;8426;48.496;9.098;2024-03-29T22:05:17;8.30;99.90
16625;DHT22;8426;48.496;9.098;2024-03-29T22:10:23;8.30;99.90
16625;DHT22;8426;48.496;9.098;2024-03-29T22:15:36;8.10;99.90
